• Join FlightAware (Why Join?)
  • Login
  • US Flag 
01:05AM EDT


 

Airport Tracker/Info


-or-


 

Live Flight TrackerFlight Track Log ✈ EJA566 ✈ 08-Oct-2013 ✈ KTEB - KBNA

Flight Track Log - Related Links

Times and Time Zones

All times are in EDT time to prevent confusion due to time zone crossing. See the EJA566 flight status page for this flight to view local times or setup timezone preferences in your user account.

Time Position Orientation Groundspeed Altitude Reporting Facility
EDT Latitude Longitude Course Direction KTS MPH feet Rate Location/Type
03:18PM 40.8667 -74.0500 14° North 169 194 1,200  Level New York TRACON
03:19PM 40.9167 -74.0333 14° North 198 228 2,000 1,680 Climbing New York TRACON
03:20PM 40.9167 -74.1167 270° West 211 243 4,600 3,180 Climbing New York TRACON
03:21PM 40.9000 -74.2000 255° West 234 269 8,700 2,700 Climbing New York TRACON
03:22PM 40.8833 -74.3000 258° West 292 336 10,000 1,440 Climbing New York TRACON
03:23PM 40.8500 -74.4167 249° West 348 400 11,600 1,800 Climbing New York TRACON
03:24PM 40.8333 -74.5333 259° West 345 397 13,600 1,860 Climbing New York TRACON
03:25PM 40.7789 -74.7200 249° West 361 415 16,600 1,260 Climbing New York Center
03:26PM 40.7431 -74.8575 251° West 366 421 17,000 1,380 Climbing New York Center
03:32PM 40.4850 -75.5090 251° West 100 115 26,300 1,500 Climbing FlightAware
03:33PM 40.4450 -75.5960 239° Southwest 356 410 27,100 1,200 Climbing FlightAware
03:34PM 40.4130 -75.6650 239° Southwest 381 438 28,000 2,040 Climbing FlightAware
03:34PM 40.3800 -75.7370 239° Southwest 374 430 29,500 2,700 Climbing FlightAware
03:35PM 40.3460 -75.8100 239° Southwest 339 390 31,400 2,820 Climbing FlightAware
03:35PM 40.3230 -75.8590 238° Southwest 328 377 32,800 1,500 Climbing FlightAware
03:36PM 40.2960 -75.9160 238° Southwest 317 365 33,200 1,500 Climbing FlightAware
03:37PM 40.2660 -75.9810 239° Southwest 306 352 34,700 1,560 Climbing FlightAware
03:37PM 40.2350 -76.0460 238° Southwest 310 357 35,300 420 Climbing FlightAware
03:38PM 40.2120 -76.0920 237° Southwest 310 357 35,300  Level FlightAware
03:38PM 40.1890 -76.1370 236° Southwest 310 357 35,300  Level FlightAware
03:39PM 40.1640 -76.1880 237° Southwest 310 357 35,300  Level FlightAware
03:40PM 40.1380 -76.2400 237° Southwest 310 357 35,300  Level FlightAware
03:40PM 40.1140 -76.2880 237° Southwest 310 357 35,300  Level FlightAware
03:41PM 40.0920 -76.3340 238° Southwest 310 357 35,300  Level FlightAware
03:41PM 40.0690 -76.3790 236° Southwest 310 357 35,300  Level FlightAware
03:42PM 40.0450 -76.4270 237° Southwest 310 357 35,300  Level FlightAware
03:43PM 40.0210 -76.4750 237° Southwest 310 357 35,300 4,620 Level FlightAware
03:43PM 39.9810 -76.5870 245° Southwest 310 357 40,000 8,280 Climbing FlightAware
03:43PM 39.9700 -76.6140 242° Southwest 310 357 40,000  Level FlightAware
03:43PM 39.9690 -76.6120 123° Southeast 310 357 40,000  Level FlightAware
03:43PM 39.9620 -76.6370 250° West 461 531 40,000  Level FlightAware
03:44PM 39.9470 -76.6590 228° Southwest 360 414 40,000  Level FlightAware
03:44PM 39.9190 -76.7260 241° Southwest 336 387 40,000  Level FlightAware
03:45PM 39.9110 -76.7410 235° Southwest 336 387 40,000  Level FlightAware
03:45PM 39.8960 -76.7740 239° Southwest 336 387 40,000  Level FlightAware
03:45PM 39.8860 -76.7970 240° Southwest 464 534 40,000  Level FlightAware
03:45PM 39.8740 -76.8190 235° Southwest 189 217 40,000  Level FlightAware
03:46PM 39.8540 -76.8620 239° Southwest 322 371 40,000  Level FlightAware
03:46PM 39.8450 -76.8830 241° Southwest 362 417 40,000  Level FlightAware
03:46PM 39.8420 -76.8860 218° Southwest 362 417 40,000  Level FlightAware
03:46PM 39.8360 -76.9020 244° Southwest 362 417 40,000  Level FlightAware
03:46PM 39.8330 -76.9080 237° Southwest 191 220 40,000  Level FlightAware
03:46PM 39.8240 -76.9260 237° Southwest 191 220 40,000  Level FlightAware
03:47PM 39.8130 -76.9520 241° Southwest 536 617 40,000  Level FlightAware
03:47PM 39.8120 -76.9520 180° South 536 617 40,000  Level FlightAware
03:47PM 39.7820 -77.0180 239° Southwest 536 617 40,000  Level FlightAware
03:48PM 39.7670 -77.0540 242° Southwest 619 712 40,000  Level FlightAware
03:48PM 39.7490 -77.0920 238° Southwest 619 712 40,000  Level FlightAware
03:48PM 39.7390 -77.1130 238° Southwest 296 341 40,000  Level FlightAware
03:49PM 39.7260 -77.1390 237° Southwest 182 209 40,000  Level FlightAware
03:49PM 39.7180 -77.1560 239° Southwest 322 371 40,000  Level FlightAware
03:49PM 39.7030 -77.1870 238° Southwest 324 373 40,000  Level FlightAware
03:50PM 39.6790 -77.2370 238° Southwest 332 382 40,000  Level FlightAware
03:50PM 39.6500 -77.2980 238° Southwest 389 448 40,000  Level FlightAware
03:51PM 39.6170 -77.3680 239° Southwest 389 448 40,000  Level FlightAware
03:52PM 39.5810 -77.4440 238° Southwest 389 448 40,000  Level FlightAware
03:52PM 39.5440 -77.5220 238° Southwest 389 448 40,000  Level FlightAware
03:53PM 39.5150 -77.5850 239° Southwest 389 448 40,000  Level FlightAware
03:54PM 39.4860 -77.6480 239° Southwest 389 448 40,000  Level FlightAware
03:54PM 39.4590 -77.7050 238° Southwest 389 448 40,000  Level FlightAware
03:55PM 39.4300 -77.7680 239° Southwest 389 448 40,000  Level FlightAware
03:55PM 39.4030 -77.8260 239° Southwest 389 448 40,000  Level FlightAware
03:56PM 39.3740 -77.8890 239° Southwest 389 448 40,000  Level FlightAware
03:57PM 39.3470 -77.9460 239° Southwest 389 448 40,000  Level FlightAware
03:57PM 39.3190 -78.0070 239° Southwest 389 448 40,000  Level FlightAware
03:58PM 39.2880 -78.0730 239° Southwest 389 448 40,000  Level FlightAware
03:58PM 39.2590 -78.1360 239° Southwest 389 448 40,000  Level FlightAware
03:59PM 39.2310 -78.1970 239° Southwest 389 448 40,000  Level FlightAware
04:00PM 39.2020 -78.2600 239° Southwest 389 448 40,000  Level FlightAware
04:00PM 39.1830 -78.3000 239° Southwest 389 448 40,000  Level FlightAware
04:01PM 39.1540 -78.3610 239° Southwest 389 448 40,000  Level FlightAware
04:01PM 39.1175 -78.5211 239° Southwest 364 419 40,000  Level Washington Center
04:02PM 39.0708 -78.6369 243° Southwest 364 419 40,000  Level Washington Center
04:03PM 39.0242 -78.7525 243° Southwest 364 419 40,000  Level Washington Center
04:04PM 38.9750 -78.8678 241° Southwest 364 419 40,000  Level Washington Center
04:05PM 38.9281 -78.9858 243° Southwest 364 419 40,000  Level Washington Center
04:06PM 38.8789 -79.1036 242° Southwest 364 419 40,000  Level Washington Center
04:07PM 38.8356 -79.2242 245° Southwest 370 426 40,000  Level Washington Center
04:08PM 38.8106 -79.3589 257° West 382 440 40,000  Level Washington Center
04:09PM 38.7875 -79.4961 258° West 393 452 40,000  Level Washington Center
04:10PM 38.7639 -79.6386 258° West 405 466 40,000  Level Washington Center
04:11PM 38.7383 -79.7756 257° West 405 466 40,000  Level Washington Center
04:12PM 38.7128 -79.9153 257° West 410 472 40,000  Level Washington Center
04:14PM 38.6744 -80.1031 255° West 406 467 40,000  Level Indianapolis Center
04:15PM 38.6486 -80.2428 257° West 403 464 40,000  Level Indianapolis Center
04:16PM 38.6225 -80.3800 256° West 398 458 40,000  Level Indianapolis Center
04:17PM 38.5969 -80.5156 256° West 394 453 40,000  Level Indianapolis Center
04:18PM 38.5711 -80.6528 257° West 395 455 40,000  Level Indianapolis Center
04:19PM 38.5436 -80.7914 256° West 400 460 40,000  Level Indianapolis Center
04:20PM 38.5108 -80.9606 256° West 406 467 40,000  Level Indianapolis Center
04:21PM 38.4831 -81.1014 256° West 406 467 40,000  Level Indianapolis Center
04:22PM 38.4531 -81.2531 256° West 405 466 40,000  Level Indianapolis Center
04:23PM 38.4272 -81.3847 256° West 409 471 40,000  Level Indianapolis Center
04:24PM 38.3989 -81.5281 256° West 412 474 40,000  Level Indianapolis Center
04:25PM 38.3694 -81.6722 255° West 415 478 40,000  Level Indianapolis Center
04:26PM 38.3372 -81.8156 254° West 417 480 40,000  Level Indianapolis Center
04:27PM 38.2972 -81.9558 250° West 420 483 40,000  Level Indianapolis Center
04:28PM 38.2503 -82.1275 251° West 426 490 40,000  Level Indianapolis Center
04:29PM 38.2094 -82.2697 250° West 428 493 40,000  Level Indianapolis Center
04:30PM 38.1697 -82.4106 250° West 425 489 40,000  Level Indianapolis Center
04:31PM 38.1289 -82.5531 250° West 430 495 40,000  Level Indianapolis Center
04:32PM 38.0881 -82.6936 250° West 427 491 40,000  Level Indianapolis Center
04:33PM 38.0406 -82.8561 250° West 422 486 40,000  Level Indianapolis Center
04:34PM 38.0008 -82.9939 250° West 418 481 40,000  Level Indianapolis Center
04:35PM 37.9614 -83.1303 250° West 414 476 40,000 -240 Level Indianapolis Center
04:36PM 37.9203 -83.2669 249° West 415 478 39,500 -540 Descending Indianapolis Center
04:37PM 37.8806 -83.4036 250° West 414 476 39,000 -300 Descending Indianapolis Center
04:38PM 37.8322 -83.5656 249° West 422 486 39,000  Level Indianapolis Center
04:39PM 37.7908 -83.7042 249° West 422 486 39,000 -780 Level Indianapolis Center
04:41PM 37.7497 -83.8386 249° West 413 475 37,500 -1,500 Descending Indianapolis Center
04:42PM 37.7100 -83.9719 249° West 408 470 35,900 -1,560 Descending Indianapolis Center
04:43PM 37.6667 -84.1081 248° West 414 476 34,300 -1,500 Descending Indianapolis Center
04:44PM 37.6194 -84.2647 249° West 411 473 32,800 -1,140 Descending Indianapolis Center
04:45PM 37.5769 -84.3992 248° West 412 474 32,000 -420 Descending Indianapolis Center
04:46PM 37.5039 -84.5117 231° Southwest 418 481 32,000  Level Indianapolis Center
04:47PM 37.4175 -84.6169 224° Southwest 429 494 32,000  Level Indianapolis Center
04:48PM 37.3311 -84.7203 224° Southwest 429 494 32,000 -180 Level Indianapolis Center
04:49PM 37.2292 -84.8394 223° Southwest 428 493 31,700 -780 Descending Indianapolis Center
04:50PM 37.1469 -84.9389 224° Southwest 419 482 30,500 -1,320 Descending Indianapolis Center
04:51PM 37.0597 -85.0400 223° Southwest 423 487 29,000 -1,440 Descending Indianapolis Center
04:52PM 36.9767 -85.1383 223° Southwest 415 478 27,600 -1,740 Descending Indianapolis Center
04:53PM 36.8911 -85.2408 224° Southwest 424 488 25,500 -2,460 Descending Indianapolis Center
04:54PM 36.8075 -85.3364 222° Southwest 412 474 22,500 -1,680 Descending Indianapolis Center
04:55PM 36.7208 -85.4636 230° Southwest 405 466 22,000 -780 Descending Indianapolis Center
04:56PM 36.6639 -85.5836 239° Southwest 402 463 20,900 -1,500 Descending Indianapolis Center
04:57PM 36.6097 -85.6983 240° Southwest 390 449 19,000 -1,800 Descending Indianapolis Center
04:58PM 36.5544 -85.8133 239° Southwest 389 448 17,200 -2,040 Descending Indianapolis Center
04:59PM 36.4964 -85.9375 240° Southwest 384 442 14,900 -2,100 Descending Indianapolis Center
05:00PM 36.4447 -86.0433 239° Southwest 361 415 12,900 -1,740 Descending Indianapolis Center
05:01PM 36.3956 -86.1494 240° Southwest 366 421 11,400 -1,560 Descending Memphis Center
05:02PM 36.3450 -86.2550 239° Southwest 352 405 9,800 -1,620 Descending Memphis Center
05:03PM 36.3019 -86.3422 239° Southwest 317 365 8,200 -1,620 Descending Memphis Center
05:04PM 36.2631 -86.4239 239° Southwest 298 343 6,600 -1,560 Descending Memphis Center
05:05PM 36.2236 -86.5031 238° Southwest 284 327 5,100 -840 Descending Memphis Center
05:06PM 36.1642 -86.5342 203° Southwest 247 284 5,000  Descending Memphis Center
05:07PM 36.1044 -86.5525 194° South 224 258 5,100 -480 Climbing Memphis Center
05:08PM 36.0589 -86.5647 192° South 191 220 4,100 -600 Descending Memphis Center
05:09PM 36.0308 -86.5994 225° Southwest 168 193 3,900 -780 Descending Memphis Center
05:10PM 36.0219 -86.6589 260° West 158 182 2,600 -900 Descending Memphis Center
05:11PM 36.0442 -86.7042 301° West 151 174 2,100 -720 Descending Memphis Center
05:12PM 36.0775 -86.6975 North 114 131 1,200 -900 Descending Memphis Center